createdAt,value
2022-10-19T03:57:37.938Z,11.30
2022-10-19T04:03:44.649Z,11.23
2022-10-19T04:22:24.045Z,10.30
2022-10-19T04:28:26.235Z,10.73
2022-10-19T04:34:28.147Z,13.57
2022-10-19T04:40:41.529Z,11.57
2022-10-19T04:46:50.135Z,13.57
2022-10-19T04:53:05.436Z,11.87
2022-10-19T04:59:10.430Z,11.97
2022-10-19T05:05:13.569Z,13.37
2022-10-19T05:11:23.057Z,11.07
2022-10-19T05:17:24.851Z,11.33
2022-10-19T05:23:26.786Z,11.87
2022-10-19T05:29:28.708Z,12.90
2022-10-19T05:35:30.681Z,13.33
2022-10-19T05:41:32.851Z,12.20
2022-10-19T05:47:35.431Z,11.23
2022-10-19T05:59:39.216Z,12.30
2022-10-19T06:05:40.906Z,13.93
2022-10-19T06:11:43.617Z,14.80
2022-10-19T06:17:45.358Z,14.47
2022-10-19T06:23:53.856Z,12.97
2022-10-19T06:29:55.721Z,13.00
2022-10-19T06:36:15.644Z,12.03
2022-10-19T06:42:17.505Z,10.80
2022-10-19T06:48:19.809Z,10.13
2022-10-19T06:54:21.580Z,9.93
2022-10-19T07:00:26.407Z,8.73
2022-10-19T07:06:30.441Z,8.90
2022-10-19T07:12:32.270Z,8.50
2022-10-19T07:18:36.042Z,7.57
2022-10-19T07:24:38.762Z,8.30
2022-10-19T07:30:41.785Z,6.50
2022-10-19T07:36:48.323Z,6.70
2022-10-19T07:42:51.261Z,5.97
2022-10-19T07:49:00.206Z,5.87
2022-10-19T07:55:02.475Z,6.93
2022-10-19T08:01:07.159Z,6.80
2022-10-19T08:07:09.675Z,6.23
2022-10-19T08:13:13.223Z,6.10
2022-10-19T08:19:16.660Z,5.93
2022-10-19T08:25:18.486Z,6.93
2022-10-19T08:31:22.816Z,7.50
2022-10-19T08:37:40.659Z,8.40
2022-10-19T08:44:31.753Z,7.53
2022-10-19T08:50:56.778Z,5.60
2022-10-19T08:57:17.799Z,6.03
2022-10-19T09:03:37.863Z,5.03
2022-10-19T09:10:17.310Z,4.73
2022-10-19T09:16:20.658Z,5.50
2022-10-19T09:22:35.803Z,5.60
2022-10-19T09:28:40.900Z,6.40
2022-10-19T09:34:53.339Z,6.97
2022-10-19T09:41:16.194Z,6.40
2022-10-19T09:54:04.800Z,4.83
2022-10-19T10:00:07.409Z,4.27
2022-10-19T10:06:18.351Z,5.10
2022-10-19T10:12:25.184Z,5.20
2022-10-19T10:18:32.207Z,5.07
2022-10-19T10:24:35.327Z,5.60
2022-10-19T10:38:00.521Z,3.33
2022-10-19T10:44:15.443Z,2.70
2022-10-19T10:56:44.656Z,3.07
2022-10-19T11:03:27.710Z,2.27
2022-10-19T11:09:36.685Z,2.60
2022-10-19T11:22:41.364Z,2.93
2022-10-19T12:35:54.049Z,2.60
2022-10-19T12:48:55.565Z,1.80
2022-10-19T13:15:05.120Z,1.67
2022-10-19T13:21:46.074Z,1.70
2022-10-19T13:47:20.253Z,1.43
2022-10-19T13:53:53.234Z,1.60
2022-10-19T14:00:24.301Z,2.57
2022-10-19T14:06:51.364Z,1.50
2022-10-19T14:12:58.758Z,1.20
2022-10-19T14:19:15.789Z,1.40
2022-10-19T14:25:35.881Z,1.63
2022-10-19T14:32:00.117Z,1.80
2022-10-19T14:38:35.612Z,2.03
2022-10-19T14:45:03.885Z,2.17
2022-10-19T14:57:54.324Z,3.63
2022-10-19T15:04:03.902Z,4.27
2022-10-19T15:10:10.631Z,4.10
2022-10-19T15:16:56.937Z,4.60
2022-10-19T15:22:59.361Z,3.30
2022-10-19T15:29:12.180Z,3.70
2022-10-19T15:35:40.365Z,3.73
2022-10-19T15:41:43.705Z,3.47
2022-10-19T15:48:10.476Z,2.97
2022-10-19T15:54:16.138Z,3.83
2022-10-19T16:00:20.428Z,4.13
2022-10-19T16:06:30.911Z,2.80
2022-10-19T16:12:39.257Z,4.00
2022-10-19T16:18:42.782Z,4.03
2022-10-19T16:24:54.500Z,3.93
2022-10-19T16:31:00.453Z,3.27
2022-10-19T16:37:05.859Z,3.17
2022-10-19T16:43:10.270Z,3.63
2022-10-19T16:49:12.705Z,3.23
2022-10-19T16:55:16.933Z,3.60
2022-10-19T17:01:20.080Z,3.60
2022-10-19T17:07:26.763Z,3.07
2022-10-19T17:13:28.663Z,2.93
2022-10-19T17:25:49.568Z,3.60
2022-10-19T17:31:51.404Z,3.73
2022-10-19T17:37:54.486Z,2.83
2022-10-19T17:43:57.133Z,2.80
2022-10-19T17:49:59.026Z,2.90
2022-10-19T17:56:06.985Z,3.90
2022-10-19T18:02:16.341Z,4.00
2022-10-19T18:08:20.234Z,3.97
2022-10-19T18:14:24.406Z,3.80
2022-10-19T18:33:11.691Z,3.73
2022-10-19T18:39:14.396Z,3.10
2022-10-19T18:45:16.612Z,4.83
2022-10-19T18:51:26.661Z,4.00
2022-10-19T18:57:31.961Z,6.67
2022-10-19T19:03:35.317Z,4.00
2022-10-19T19:09:38.300Z,2.40
2022-10-19T19:15:43.201Z,2.87
2022-10-19T19:21:45.745Z,3.00
2022-10-19T19:27:51.156Z,5.13
2022-10-19T19:33:54.421Z,5.03
2022-10-19T19:39:57.281Z,3.40
2022-10-19T19:46:18.203Z,2.57
2022-10-19T19:52:20.130Z,2.20
2022-10-19T19:58:25.376Z,2.30
2022-10-19T20:10:44.398Z,2.87
2022-10-19T20:16:46.179Z,2.27
2022-10-19T20:22:49.066Z,1.77
2022-10-19T20:28:51.415Z,1.93
2022-10-19T20:34:53.588Z,1.90
2022-10-19T20:41:04.240Z,3.27
2022-10-19T20:47:23.842Z,4.17
2022-10-19T20:53:36.106Z,2.70
2022-10-19T20:59:38.971Z,1.50
2022-10-19T21:05:40.855Z,1.33
2022-10-19T21:11:54.436Z,2.03
2022-10-19T21:17:58.721Z,1.83
2022-10-19T21:24:05.025Z,1.80
2022-10-19T21:30:07.335Z,2.50
2022-10-19T21:36:11.959Z,2.20
2022-10-19T21:42:16.620Z,2.27
2022-10-19T21:48:20.359Z,2.10
2022-10-19T21:54:29.419Z,2.80
2022-10-19T22:00:31.471Z,2.33
2022-10-19T22:06:37.949Z,1.73
2022-10-19T22:12:44.413Z,1.10
2022-10-19T22:18:51.047Z,0.87
2022-10-19T22:24:57.934Z,0.80
2022-10-19T22:31:00.131Z,0.80
2022-10-19T22:37:01.978Z,1.07
2022-10-19T22:43:06.718Z,0.67
2022-10-19T22:55:11.392Z,1.20
2022-10-19T23:01:15.075Z,1.33
2022-10-19T23:07:16.954Z,1.53
2022-10-19T23:13:23.325Z,1.70
2022-10-19T23:19:31.962Z,1.60
2022-10-19T23:25:39.877Z,1.80
2022-10-19T23:31:41.609Z,1.90
2022-10-19T23:37:52.868Z,1.80
2022-10-19T23:43:55.240Z,2.07
2022-10-19T23:49:57.271Z,1.30
